Terminal Aerodrome Forecast
Issued by NWS

Home | Current Version | Previous Version | Text Only | Print | Product List | Glossary On
Versions: 1 2 3 4 5 6 7 8 9 10 11 12 13 14 15 16 17 18 19 20 21 22 23
704
FTUS46 KMFR 311610 AAA
TAFOTH
TAF AMD
KOTH 311610Z 3116/0112 16005KT 6SM -SHRA BR SCT010 OVC020
     FM311900 24007KT P6SM SCT015 BKN020 OVC040
     FM312200 29009KT P6SM SCT015 BKN025 OVC040
     FM010300 31005KT 5SM BR OVC007=

USA.gov is the U.S. government's official web portal to all federal, state and local government web resources and services.